sensor_id;sensor_type;location;lat;lon;timestamp;temperature;humidity
25170;DHT22;13129;48.012;10.352;2022-09-27T03:31:47;9.20;99.90
25170;DHT22;13129;48.012;10.352;2022-09-27T03:34:13;9.20;99.90
25170;DHT22;13129;48.012;10.352;2022-09-27T03:36:42;9.20;99.90
25170;DHT22;13129;48.012;10.352;2022-09-27T03:39:07;9.20;99.90
25170;DHT22;13129;48.012;10.352;2022-09-27T03:41:33;9.20;99.90
25170;DHT22;13129;48.012;10.352;2022-09-27T03:43:59;9.20;99.90
25170;DHT22;13129;48.012;10.352;2022-09-27T03:46:25;9.20;99.90
25170;DHT22;13129;48.012;10.352;2022-09-27T03:48:50;9.10;99.90
25170;DHT22;13129;48.012;10.352;2022-09-27T03:51:16;9.10;99.90
25170;DHT22;13129;48.012;10.352;2022-09-27T03:53:42;9.10;99.90
25170;DHT22;13129;48.012;10.352;2022-09-27T03:56:07;9.10;99.90
25170;DHT22;13129;48.012;10.352;2022-09-27T03:58:33;9.10;99.90
25170;DHT22;13129;48.012;10.352;2022-09-27T04:00:59;9.10;99.90
25170;DHT22;13129;48.012;10.352;2022-09-27T04:03:24;9.00;99.90
25170;DHT22;13129;48.012;10.352;2022-09-27T04:05:51;9.00;99.90
25170;DHT22;13129;48.012;10.352;2022-09-27T04:08:17;9.00;99.90
25170;DHT22;13129;48.012;10.352;2022-09-27T04:10:43;9.00;99.90
25170;DHT22;13129;48.012;10.352;2022-09-27T04:13:08;9.00;99.90
25170;DHT22;13129;48.012;10.352;2022-09-27T04:15:34;9.00;99.90
25170;DHT22;13129;48.012;10.352;2022-09-27T04:17:59;8.90;99.90
25170;DHT22;13129;48.012;10.352;2022-09-27T04:20:25;8.90;99.90
25170;DHT22;13129;48.012;10.352;2022-09-27T04:22:50;8.90;99.90
25170;DHT22;13129;48.012;10.352;2022-09-27T04:25:16;8.90;99.90
25170;DHT22;13129;48.012;10.352;2022-09-27T04:27:44;8.80;99.90
25170;DHT22;13129;48.012;10.352;2022-09-27T04:30:10;8.80;99.90
25170;DHT22;13129;48.012;10.352;2022-09-27T04:32:43;8.70;99.90
25170;DHT22;13129;48.012;10.352;2022-09-27T04:35:09;8.60;99.90
25170;DHT22;13129;48.012;10.352;2022-09-27T04:37:54;8.60;99.90
25170;DHT22;13129;48.012;10.352;2022-09-27T04:40:19;8.60;99.90
25170;DHT22;13129;48.012;10.352;2022-09-27T04:42:47;8.50;99.90
25170;DHT22;13129;48.012;10.352;2022-09-27T04:45:12;8.50;99.90
25170;DHT22;13129;48.012;10.352;2022-09-27T04:47:42;8.50;99.90
25170;DHT22;13129;48.012;10.352;2022-09-27T04:50:08;8.50;99.90
25170;DHT22;13129;48.012;10.352;2022-09-27T04:52:33;8.60;99.90
25170;DHT22;13129;48.012;10.352;2022-09-27T04:54:59;8.60;99.90
25170;DHT22;13129;48.012;10.352;2022-09-27T04:57:24;8.60;99.90
25170;DHT22;13129;48.012;10.352;2022-09-27T04:59:50;8.60;99.90
25170;DHT22;13129;48.012;10.352;2022-09-27T05:02:16;8.60;99.90
25170;DHT22;13129;48.012;10.352;2022-09-27T05:04:41;8.40;99.90
25170;DHT22;13129;48.012;10.352;2022-09-27T05:07:07;8.40;99.90
25170;DHT22;13129;48.012;10.352;2022-09-27T05:09:33;8.40;99.90
25170;DHT22;13129;48.012;10.352;2022-09-27T05:11:58;8.30;99.90
25170;DHT22;13129;48.012;10.352;2022-09-27T05:14:24;8.40;99.90
25170;DHT22;13129;48.012;10.352;2022-09-27T05:16:49;8.40;99.90
25170;DHT22;13129;48.012;10.352;2022-09-27T05:19:16;8.40;99.90
25170;DHT22;13129;48.012;10.352;2022-09-27T05:21:42;8.50;99.90
25170;DHT22;13129;48.012;10.352;2022-09-27T05:24:08;8.50;99.90
25170;DHT22;13129;48.012;10.352;2022-09-27T05:26:33;8.60;99.90
25170;DHT22;13129;48.012;10.352;2022-09-27T05:28:59;8.60;99.90
25170;DHT22;13129;48.012;10.352;2022-09-27T05:31:24;8.60;99.90
25170;DHT22;13129;48.012;10.352;2022-09-27T05:33:51;8.70;99.90
25170;DHT22;13129;48.012;10.352;2022-09-27T05:36:16;8.70;99.90
25170;DHT22;13129;48.012;10.352;2022-09-27T05:38:42;8.80;99.90
25170;DHT22;13129;48.012;10.352;2022-09-27T05:41:08;8.80;99.90
25170;DHT22;13129;48.012;10.352;2022-09-27T05:43:34;8.80;99.90
25170;DHT22;13129;48.012;10.352;2022-09-27T05:46:00;8.90;99.90
25170;DHT22;13129;48.012;10.352;2022-09-27T05:48:26;9.00;99.90
25170;DHT22;13129;48.012;10.352;2022-09-27T05:50:52;9.00;99.90
25170;DHT22;13129;48.012;10.352;2022-09-27T05:53:18;9.00;99.90
25170;DHT22;13129;48.012;10.352;2022-09-27T05:55:43;9.00;99.90
25170;DHT22;13129;48.012;10.352;2022-09-27T05:58:09;9.10;99.90
25170;DHT22;13129;48.012;10.352;2022-09-27T06:00:35;9.10;99.90
25170;DHT22;13129;48.012;10.352;2022-09-27T06:03:01;9.10;99.90
25170;DHT22;13129;48.012;10.352;2022-09-27T06:05:28;9.10;99.90
25170;DHT22;13129;48.012;10.352;2022-09-27T06:07:58;9.00;99.90
25170;DHT22;13129;48.012;10.352;2022-09-27T06:10:25;9.00;99.90
25170;DHT22;13129;48.012;10.352;2022-09-27T06:12:50;9.00;99.90
25170;DHT22;13129;48.012;10.352;2022-09-27T06:15:17;9.10;99.90
25170;DHT22;13129;48.012;10.352;2022-09-27T06:17:42;9.20;99.90
25170;DHT22;13129;48.012;10.352;2022-09-27T06:20:08;9.40;99.90
25170;DHT22;13129;48.012;10.352;2022-09-27T06:22:34;9.50;99.90
25170;DHT22;13129;48.012;10.352;2022-09-27T06:25:00;9.50;99.90
25170;DHT22;13129;48.012;10.352;2022-09-27T06:27:28;9.40;99.90
25170;DHT22;13129;48.012;10.352;2022-09-27T06:29:58;9.40;99.90
25170;DHT22;13129;48.012;10.352;2022-09-27T06:32:24;9.50;99.90
25170;DHT22;13129;48.012;10.352;2022-09-27T06:34:49;9.50;99.90
25170;DHT22;13129;48.012;10.352;2022-09-27T06:37:15;9.50;99.90
25170;DHT22;13129;48.012;10.352;2022-09-27T06:39:40;9.50;99.90
25170;DHT22;13129;48.012;10.352;2022-09-27T06:42:06;9.50;99.90
25170;DHT22;13129;48.012;10.352;2022-09-27T06:44:32;9.40;99.90
25170;DHT22;13129;48.012;10.352;2022-09-27T06:46:59;9.40;99.90
25170;DHT22;13129;48.012;10.352;2022-09-27T06:49:24;9.20;99.90
25170;DHT22;13129;48.012;10.352;2022-09-27T06:51:50;9.20;99.90
25170;DHT22;13129;48.012;10.352;2022-09-27T06:54:17;9.30;99.90
25170;DHT22;13129;48.012;10.352;2022-09-27T06:56:42;9.70;99.90
25170;DHT22;13129;48.012;10.352;2022-09-27T06:59:08;10.00;99.90
25170;DHT22;13129;48.012;10.352;2022-09-27T07:01:52;10.40;99.90
25170;DHT22;13129;48.012;10.352;2022-09-27T07:04:18;10.70;99.90
25170;DHT22;13129;48.012;10.352;2022-09-27T07:06:43;11.00;99.90
25170;DHT22;13129;48.012;10.352;2022-09-27T07:09:09;11.30;99.90
25170;DHT22;13129;48.012;10.352;2022-09-27T07:11:35;11.50;99.90
25170;DHT22;13129;48.012;10.352;2022-09-27T07:14:01;11.60;99.90
25170;DHT22;13129;48.012;10.352;2022-09-27T07:16:29;11.30;99.90
25170;DHT22;13129;48.012;10.352;2022-09-27T07:18:54;11.10;99.90
25170;DHT22;13129;48.012;10.352;2022-09-27T07:21:20;10.70;99.90
25170;DHT22;13129;48.012;10.352;2022-09-27T07:23:46;10.20;99.90
25170;DHT22;13129;48.012;10.352;2022-09-27T07:26:11;9.60;99.90
25170;DHT22;13129;48.012;10.352;2022-09-27T07:28:37;9.10;99.90
25170;DHT22;13129;48.012;10.352;2022-09-27T07:31:06;8.80;99.90
25170;DHT22;13129;48.012;10.352;2022-09-27T07:33:31;8.40;99.90
25170;DHT22;13129;48.012;10.352;2022-09-27T07:35:58;8.20;99.90
25170;DHT22;13129;48.012;10.352;2022-09-27T07:38:23;8.10;99.90
25170;DHT22;13129;48.012;10.352;2022-09-27T07:40:49;7.90;99.90
25170;DHT22;13129;48.012;10.352;2022-09-27T07:43:14;7.90;99.90
25170;DHT22;13129;48.012;10.352;2022-09-27T07:45:40;7.90;99.90
25170;DHT22;13129;48.012;10.352;2022-09-27T07:48:06;8.00;99.90
25170;DHT22;13129;48.012;10.352;2022-09-27T07:50:32;8.20;99.90
25170;DHT22;13129;48.012;10.352;2022-09-27T07:52:57;8.30;99.90
25170;DHT22;13129;48.012;10.352;2022-09-27T07:55:23;8.50;99.90
25170;DHT22;13129;48.012;10.352;2022-09-27T07:57:48;8.50;99.90
25170;DHT22;13129;48.012;10.352;2022-09-27T08:00:15;8.60;99.90
25170;DHT22;13129;48.012;10.352;2022-09-27T08:02:41;8.70;99.90
25170;DHT22;13129;48.012;10.352;2022-09-27T08:05:08;8.90;99.90
25170;DHT22;13129;48.012;10.352;2022-09-27T08:07:33;9.10;99.90
25170;DHT22;13129;48.012;10.352;2022-09-27T08:09:59;9.70;99.90
25170;DHT22;13129;48.012;10.352;2022-09-27T08:12:24;10.30;99.90
25170;DHT22;13129;48.012;10.352;2022-09-27T08:14:50;10.40;99.90
25170;DHT22;13129;48.012;10.352;2022-09-27T08:17:17;10.30;99.90
25170;DHT22;13129;48.012;10.352;2022-09-27T08:19:43;10.20;99.90
25170;DHT22;13129;48.012;10.352;2022-09-27T08:22:10;9.90;99.90
25170;DHT22;13129;48.012;10.352;2022-09-27T08:24:38;9.80;99.90
25170;DHT22;13129;48.012;10.352;2022-09-27T08:27:04;9.70;99.90
25170;DHT22;13129;48.012;10.352;2022-09-27T08:29:32;9.70;99.90
25170;DHT22;13129;48.012;10.352;2022-09-27T08:31:58;9.60;99.90
25170;DHT22;13129;48.012;10.352;2022-09-27T08:34:23;10.20;99.90
25170;DHT22;13129;48.012;10.352;2022-09-27T08:36:49;11.20;99.90
25170;DHT22;13129;48.012;10.352;2022-09-27T08:39:14;11.70;99.90
25170;DHT22;13129;48.012;10.352;2022-09-27T08:49:49;10.90;99.90
25170;DHT22;13129;48.012;10.352;2022-09-27T08:55:03;10.60;99.90
25170;DHT22;13129;48.012;10.352;2022-09-27T08:57:30;10.50;99.90
25170;DHT22;13129;48.012;10.352;2022-09-27T09:00:06;10.50;99.90
25170;DHT22;13129;48.012;10.352;2022-09-27T09:02:32;10.40;99.90
25170;DHT22;13129;48.012;10.352;2022-09-27T09:05:00;10.50;99.90
25170;DHT22;13129;48.012;10.352;2022-09-27T09:13:33;10.80;99.90
25170;DHT22;13129;48.012;10.352;2022-09-27T09:20:52;10.70;99.90
25170;DHT22;13129;48.012;10.352;2022-09-27T09:25:53;10.20;99.90
25170;DHT22;13129;48.012;10.352;2022-09-27T09:28:31;10.10;99.90
25170;DHT22;13129;48.012;10.352;2022-09-27T09:33:36;10.20;99.90
25170;DHT22;13129;48.012;10.352;2022-09-27T09:36:50;10.40;99.90
25170;DHT22;13129;48.012;10.352;2022-09-27T09:38:56;11.10;99.90
25170;DHT22;13129;48.012;10.352;2022-09-27T09:41:25;11.40;99.90
25170;DHT22;13129;48.012;10.352;2022-09-27T09:46:26;11.50;99.90
25170;DHT22;13129;48.012;10.352;2022-09-27T09:49:11;11.40;99.90
25170;DHT22;13129;48.012;10.352;2022-09-27T09:51:43;11.20;99.90
25170;DHT22;13129;48.012;10.352;2022-09-27T09:54:13;11.00;99.90
25170;DHT22;13129;48.012;10.352;2022-09-27T09:56:47;10.90;99.90
25170;DHT22;13129;48.012;10.352;2022-09-27T10:01:40;10.80;99.90
25170;DHT22;13129;48.012;10.352;2022-09-27T10:04:06;11.00;99.90
25170;DHT22;13129;48.012;10.352;2022-09-27T10:06:31;11.30;99.90
25170;DHT22;13129;48.012;10.352;2022-09-27T10:08:57;11.50;99.90
25170;DHT22;13129;48.012;10.352;2022-09-27T10:11:25;11.50;99.90
25170;DHT22;13129;48.012;10.352;2022-09-27T10:13:51;11.50;99.90
25170;DHT22;13129;48.012;10.352;2022-09-27T10:16:18;11.50;99.90
25170;DHT22;13129;48.012;10.352;2022-09-27T10:18:44;11.70;99.90
25170;DHT22;13129;48.012;10.352;2022-09-27T10:21:12;12.40;99.90
25170;DHT22;13129;48.012;10.352;2022-09-27T10:26:23;15.50;99.90
25170;DHT22;13129;48.012;10.352;2022-09-27T10:28:49;17.30;99.90
25170;DHT22;13129;48.012;10.352;2022-09-27T10:31:17;19.00;99.90
25170;DHT22;13129;48.012;10.352;2022-09-27T10:36:35;19.50;99.90
25170;DHT22;13129;48.012;10.352;2022-09-27T10:39:03;19.00;97.30
25170;DHT22;13129;48.012;10.352;2022-09-27T10:41:31;17.70;99.20
25170;DHT22;13129;48.012;10.352;2022-09-27T10:43:57;17.10;99.90
25170;DHT22;13129;48.012;10.352;2022-09-27T10:46:42;16.70;99.90
25170;DHT22;13129;48.012;10.352;2022-09-27T10:51:53;17.60;99.90
25170;DHT22;13129;48.012;10.352;2022-09-27T10:54:20;17.90;99.90
25170;DHT22;13129;48.012;10.352;2022-09-27T10:56:53;18.10;98.60
25170;DHT22;13129;48.012;10.352;2022-09-27T10:59:19;18.10;98.20
25170;DHT22;13129;48.012;10.352;2022-09-27T11:01:44;18.00;97.10
25170;DHT22;13129;48.012;10.352;2022-09-27T11:04:20;17.40;97.70
25170;DHT22;13129;48.012;10.352;2022-09-27T11:06:47;16.70;99.50
25170;DHT22;13129;48.012;10.352;2022-09-27T11:09:17;16.60;99.90
25170;DHT22;13129;48.012;10.352;2022-09-27T11:11:44;16.20;99.90
25170;DHT22;13129;48.012;10.352;2022-09-27T11:14:20;15.90;99.90
25170;DHT22;13129;48.012;10.352;2022-09-27T11:24:36;13.90;99.90
25170;DHT22;13129;48.012;10.352;2022-09-27T11:35:06;13.80;99.90
25170;DHT22;13129;48.012;10.352;2022-09-27T11:47:59;13.30;99.90
25170;DHT22;13129;48.012;10.352;2022-09-27T11:52:57;12.80;99.90
25170;DHT22;13129;48.012;10.352;2022-09-27T11:58:16;12.20;99.90
25170;DHT22;13129;48.012;10.352;2022-09-27T12:00:50;12.00;99.90
25170;DHT22;13129;48.012;10.352;2022-09-27T12:03:39;11.90;99.90
25170;DHT22;13129;48.012;10.352;2022-09-27T12:06:20;11.70;99.90
25170;DHT22;13129;48.012;10.352;2022-09-27T12:09:03;11.50;99.90
25170;DHT22;13129;48.012;10.352;2022-09-27T12:16:43;11.90;99.90
25170;DHT22;13129;48.012;10.352;2022-09-27T12:19:13;12.30;99.90
25170;DHT22;13129;48.012;10.352;2022-09-27T12:21:42;12.80;99.90
25170;DHT22;13129;48.012;10.352;2022-09-27T12:24:13;13.10;99.90
25170;DHT22;13129;48.012;10.352;2022-09-27T12:26:40;13.20;99.90
25170;DHT22;13129;48.012;10.352;2022-09-27T12:29:16;13.10;99.90
25170;DHT22;13129;48.012;10.352;2022-09-27T12:31:45;12.90;99.90
25170;DHT22;13129;48.012;10.352;2022-09-27T12:34:19;12.70;99.90
25170;DHT22;13129;48.012;10.352;2022-09-27T12:36:51;12.70;99.90
25170;DHT22;13129;48.012;10.352;2022-09-27T12:41:51;12.40;99.90
25170;DHT22;13129;48.012;10.352;2022-09-27T12:44:20;12.30;99.90
25170;DHT22;13129;48.012;10.352;2022-09-27T12:47:06;12.20;99.90
25170;DHT22;13129;48.012;10.352;2022-09-27T12:52:20;12.40;99.90
25170;DHT22;13129;48.012;10.352;2022-09-27T12:57:28;12.40;99.90
25170;DHT22;13129;48.012;10.352;2022-09-27T13:05:41;12.20;99.90
25170;DHT22;13129;48.012;10.352;2022-09-27T13:13:16;12.40;99.90
25170;DHT22;13129;48.012;10.352;2022-09-27T13:15:42;12.70;99.90
25170;DHT22;13129;48.012;10.352;2022-09-27T13:21:08;12.70;99.90
25170;DHT22;13129;48.012;10.352;2022-09-27T13:26:01;12.40;99.90
25170;DHT22;13129;48.012;10.352;2022-09-27T13:33:32;12.40;99.90
25170;DHT22;13129;48.012;10.352;2022-09-27T13:36:16;12.30;99.90
25170;DHT22;13129;48.012;10.352;2022-09-27T13:44:10;11.90;99.90
25170;DHT22;13129;48.012;10.352;2022-09-27T13:46:43;11.80;99.90
25170;DHT22;13129;48.012;10.352;2022-09-27T13:49:17;11.70;99.90
25170;DHT22;13129;48.012;10.352;2022-09-27T13:51:45;11.60;99.90
25170;DHT22;13129;48.012;10.352;2022-09-27T13:56:56;11.40;99.90
25170;DHT22;13129;48.012;10.352;2022-09-27T14:04:34;11.20;99.90
25170;DHT22;13129;48.012;10.352;2022-09-27T14:07:05;11.10;99.90
25170;DHT22;13129;48.012;10.352;2022-09-27T14:09:36;10.90;99.90
25170;DHT22;13129;48.012;10.352;2022-09-27T14:12:05;11.00;99.90
25170;DHT22;13129;48.012;10.352;2022-09-27T14:14:32;11.10;99.90
25170;DHT22;13129;48.012;10.352;2022-09-27T14:16:59;11.10;99.90
25170;DHT22;13129;48.012;10.352;2022-09-27T14:19:25;11.20;99.90
25170;DHT22;13129;48.012;10.352;2022-09-27T14:21:50;11.20;99.90
25170;DHT22;13129;48.012;10.352;2022-09-27T14:26:44;11.40;99.90
25170;DHT22;13129;48.012;10.352;2022-09-27T14:29:19;11.20;99.90
25170;DHT22;13129;48.012;10.352;2022-09-27T14:31:45;11.20;99.90
25170;DHT22;13129;48.012;10.352;2022-09-27T14:34:13;11.30;99.90
25170;DHT22;13129;48.012;10.352;2022-09-27T14:36:39;11.50;99.90
25170;DHT22;13129;48.012;10.352;2022-09-27T14:39:30;11.60;99.90
25170;DHT22;13129;48.012;10.352;2022-09-27T14:41:57;11.70;99.90
25170;DHT22;13129;48.012;10.352;2022-09-27T14:44:23;11.80;99.90
25170;DHT22;13129;48.012;10.352;2022-09-27T14:47:06;11.70;99.90
25170;DHT22;13129;48.012;10.352;2022-09-27T14:49:32;11.60;99.90
25170;DHT22;13129;48.012;10.352;2022-09-27T14:51:57;11.40;99.90
25170;DHT22;13129;48.012;10.352;2022-09-27T14:54:24;11.20;99.90
25170;DHT22;13129;48.012;10.352;2022-09-27T14:56:51;11.10;99.90
25170;DHT22;13129;48.012;10.352;2022-09-27T14:59:28;11.00;99.90
25170;DHT22;13129;48.012;10.352;2022-09-27T15:01:59;11.00;99.90
25170;DHT22;13129;48.012;10.352;2022-09-27T15:04:26;10.90;99.90
25170;DHT22;13129;48.012;10.352;2022-09-27T15:06:53;10.90;99.90
25170;DHT22;13129;48.012;10.352;2022-09-27T15:09:20;10.90;99.90
25170;DHT22;13129;48.012;10.352;2022-09-27T15:11:52;10.90;99.90
25170;DHT22;13129;48.012;10.352;2022-09-27T15:14:19;10.80;99.90
25170;DHT22;13129;48.012;10.352;2022-09-27T15:16:49;10.80;99.90
25170;DHT22;13129;48.012;10.352;2022-09-27T15:21:48;10.70;99.90
25170;DHT22;13129;48.012;10.352;2022-09-27T15:26:58;10.70;99.90
25170;DHT22;13129;48.012;10.352;2022-09-27T15:29:24;10.70;99.90
25170;DHT22;13129;48.012;10.352;2022-09-27T15:32:03;10.60;99.90
25170;DHT22;13129;48.012;10.352;2022-09-27T15:34:30;10.50;99.90
25170;DHT22;13129;48.012;10.352;2022-09-27T15:36:58;10.30;99.90
25170;DHT22;13129;48.012;10.352;2022-09-27T15:39:29;10.00;99.90
25170;DHT22;13129;48.012;10.352;2022-09-27T15:44:42;9.50;99.90
25170;DHT22;13129;48.012;10.352;2022-09-27T15:52:41;9.40;99.90
25170;DHT22;13129;48.012;10.352;2022-09-27T15:55:10;9.30;99.90
25170;DHT22;13129;48.012;10.352;2022-09-27T15:57:37;9.30;99.90
25170;DHT22;13129;48.012;10.352;2022-09-27T16:00:03;9.30;99.90
25170;DHT22;13129;48.012;10.352;2022-09-27T16:02:29;9.20;99.90
25170;DHT22;13129;48.012;10.352;2022-09-27T16:04:54;9.20;99.90
25170;DHT22;13129;48.012;10.352;2022-09-27T16:07:20;9.20;99.90
25170;DHT22;13129;48.012;10.352;2022-09-27T16:09:47;9.20;99.90
25170;DHT22;13129;48.012;10.352;2022-09-27T16:12:15;9.10;99.90
25170;DHT22;13129;48.012;10.352;2022-09-27T16:14:40;9.10;99.90
25170;DHT22;13129;48.012;10.352;2022-09-27T16:17:06;9.10;99.90
25170;DHT22;13129;48.012;10.352;2022-09-27T16:19:31;9.00;99.90
25170;DHT22;13129;48.012;10.352;2022-09-27T16:21:57;9.00;99.90
25170;DHT22;13129;48.012;10.352;2022-09-27T16:24:27;8.90;99.90
25170;DHT22;13129;48.012;10.352;2022-09-27T16:26:53;8.90;99.90
25170;DHT22;13129;48.012;10.352;2022-09-27T16:29:18;8.80;99.90
25170;DHT22;13129;48.012;10.352;2022-09-27T16:31:44;8.80;99.90
25170;DHT22;13129;48.012;10.352;2022-09-27T16:34:11;8.80;99.90
25170;DHT22;13129;48.012;10.352;2022-09-27T16:36:37;8.70;99.90
25170;DHT22;13129;48.012;10.352;2022-09-27T16:39:04;8.70;99.90
25170;DHT22;13129;48.012;10.352;2022-09-27T16:41:30;8.70;99.90
25170;DHT22;13129;48.012;10.352;2022-09-27T16:43:57;8.60;99.90
25170;DHT22;13129;48.012;10.352;2022-09-27T16:46:23;8.50;99.90
25170;DHT22;13129;48.012;10.352;2022-09-27T16:48:49;8.40;99.90
25170;DHT22;13129;48.012;10.352;2022-09-27T16:53:59;8.30;99.90
25170;DHT22;13129;48.012;10.352;2022-09-27T16:56:24;8.20;99.90
25170;DHT22;13129;48.012;10.352;2022-09-27T16:58:51;8.10;99.90
25170;DHT22;13129;48.012;10.352;2022-09-27T17:01:17;8.10;99.90
25170;DHT22;13129;48.012;10.352;2022-09-27T17:03:43;8.10;99.90
25170;DHT22;13129;48.012;10.352;2022-09-27T17:06:13;8.00;99.90
25170;DHT22;13129;48.012;10.352;2022-09-27T17:08:39;7.90;99.90
25170;DHT22;13129;48.012;10.352;2022-09-27T17:11:05;7.90;99.90
25170;DHT22;13129;48.012;10.352;2022-09-27T17:13:30;7.90;99.90
25170;DHT22;13129;48.012;10.352;2022-09-27T17:15:56;7.80;99.90
25170;DHT22;13129;48.012;10.352;2022-09-27T17:18:21;7.80;99.90
25170;DHT22;13129;48.012;10.352;2022-09-27T17:20:47;7.80;99.90
25170;DHT22;13129;48.012;10.352;2022-09-27T17:23:13;7.90;99.90
25170;DHT22;13129;48.012;10.352;2022-09-27T17:25:40;7.90;99.90
25170;DHT22;13129;48.012;10.352;2022-09-27T17:28:06;7.90;99.90
25170;DHT22;13129;48.012;10.352;2022-09-27T17:30:31;7.90;99.90
25170;DHT22;13129;48.012;10.352;2022-09-27T17:32:59;8.00;99.90
25170;DHT22;13129;48.012;10.352;2022-09-27T17:35:24;7.90;99.90
25170;DHT22;13129;48.012;10.352;2022-09-27T17:37:50;7.90;99.90
25170;DHT22;13129;48.012;10.352;2022-09-27T17:40:15;7.90;99.90
25170;DHT22;13129;48.012;10.352;2022-09-27T17:42:41;8.00;99.90
25170;DHT22;13129;48.012;10.352;2022-09-27T17:45:07;8.00;99.90
25170;DHT22;13129;48.012;10.352;2022-09-27T17:47:33;8.00;99.90
25170;DHT22;13129;48.012;10.352;2022-09-27T17:50:17;8.10;99.90
25170;DHT22;13129;48.012;10.352;2022-09-27T17:52:49;8.10;99.90
25170;DHT22;13129;48.012;10.352;2022-09-27T17:55:14;8.10;99.90
25170;DHT22;13129;48.012;10.352;2022-09-27T17:57:40;8.10;99.90
25170;DHT22;13129;48.012;10.352;2022-09-27T18:00:06;8.00;99.90
25170;DHT22;13129;48.012;10.352;2022-09-27T18:02:31;8.00;99.90
25170;DHT22;13129;48.012;10.352;2022-09-27T18:04:57;8.00;99.90
25170;DHT22;13129;48.012;10.352;2022-09-27T18:07:22;8.00;99.90
25170;DHT22;13129;48.012;10.352;2022-09-27T18:09:48;8.00;99.90
25170;DHT22;13129;48.012;10.352;2022-09-27T18:12:15;8.00;99.90
25170;DHT22;13129;48.012;10.352;2022-09-27T18:14:41;8.00;99.90
25170;DHT22;13129;48.012;10.352;2022-09-27T18:17:07;8.00;99.90
25170;DHT22;13129;48.012;10.352;2022-09-27T18:19:35;8.00;99.90
25170;DHT22;13129;48.012;10.352;2022-09-27T18:22:01;8.00;99.90
25170;DHT22;13129;48.012;10.352;2022-09-27T18:24:28;8.00;99.90
25170;DHT22;13129;48.012;10.352;2022-09-27T18:26:53;8.00;99.90
25170;DHT22;13129;48.012;10.352;2022-09-27T18:29:21;7.90;99.90
25170;DHT22;13129;48.012;10.352;2022-09-27T18:31:47;7.90;99.90
25170;DHT22;13129;48.012;10.352;2022-09-27T18:34:13;7.90;99.90
25170;DHT22;13129;48.012;10.352;2022-09-27T18:36:38;7.90;99.90
25170;DHT22;13129;48.012;10.352;2022-09-27T18:39:12;7.90;99.90
25170;DHT22;13129;48.012;10.352;2022-09-27T18:41:38;7.90;99.90
25170;DHT22;13129;48.012;10.352;2022-09-27T18:44:05;7.90;99.90
25170;DHT22;13129;48.012;10.352;2022-09-27T18:46:34;7.90;99.90
25170;DHT22;13129;48.012;10.352;2022-09-27T18:49:00;8.00;99.90
25170;DHT22;13129;48.012;10.352;2022-09-27T18:51:26;8.00;99.90
25170;DHT22;13129;48.012;10.352;2022-09-27T18:53:53;8.00;99.90
25170;DHT22;13129;48.012;10.352;2022-09-27T18:56:18;8.10;99.90
25170;DHT22;13129;48.012;10.352;2022-09-27T18:58:44;8.00;99.90
25170;DHT22;13129;48.012;10.352;2022-09-27T19:01:11;8.00;99.90
25170;DHT22;13129;48.012;10.352;2022-09-27T19:03:37;8.00;99.90
25170;DHT22;13129;48.012;10.352;2022-09-27T19:06:03;8.10;99.90
25170;DHT22;13129;48.012;10.352;2022-09-27T19:08:29;8.10;99.90
25170;DHT22;13129;48.012;10.352;2022-09-27T19:10:55;8.10;99.90
25170;DHT22;13129;48.012;10.352;2022-09-27T19:13:27;8.10;99.90
25170;DHT22;13129;48.012;10.352;2022-09-27T19:15:53;8.10;99.90
25170;DHT22;13129;48.012;10.352;2022-09-27T19:18:19;8.10;99.90
25170;DHT22;13129;48.012;10.352;2022-09-27T19:20:44;8.10;99.90
25170;DHT22;13129;48.012;10.352;2022-09-27T19:23:10;8.10;99.90
25170;DHT22;13129;48.012;10.352;2022-09-27T19:25:38;8.10;99.90
25170;DHT22;13129;48.012;10.352;2022-09-27T19:28:04;8.10;99.90
25170;DHT22;13129;48.012;10.352;2022-09-27T19:30:30;8.20;99.90
25170;DHT22;13129;48.012;10.352;2022-09-27T19:32:55;8.10;99.90
25170;DHT22;13129;48.012;10.352;2022-09-27T19:35:21;8.10;99.90
25170;DHT22;13129;48.012;10.352;2022-09-27T19:37:46;8.10;99.90
25170;DHT22;13129;48.012;10.352;2022-09-27T19:40:12;8.20;99.90
25170;DHT22;13129;48.012;10.352;2022-09-27T19:42:38;8.20;99.90
25170;DHT22;13129;48.012;10.352;2022-09-27T19:45:03;8.20;99.90
25170;DHT22;13129;48.012;10.352;2022-09-27T19:47:29;8.10;99.90
25170;DHT22;13129;48.012;10.352;2022-09-27T19:49:55;8.20;99.90
25170;DHT22;13129;48.012;10.352;2022-09-27T19:52:21;8.20;99.90
25170;DHT22;13129;48.012;10.352;2022-09-27T19:54:46;8.20;99.90
25170;DHT22;13129;48.012;10.352;2022-09-27T19:57:12;8.20;99.90
25170;DHT22;13129;48.012;10.352;2022-09-27T19:59:38;8.20;99.90
25170;DHT22;13129;48.012;10.352;2022-09-27T20:02:03;8.20;99.90
25170;DHT22;13129;48.012;10.352;2022-09-27T20:04:29;8.20;99.90
25170;DHT22;13129;48.012;10.352;2022-09-27T20:06:55;8.20;99.90
25170;DHT22;13129;48.012;10.352;2022-09-27T20:09:20;8.20;99.90
25170;DHT22;13129;48.012;10.352;2022-09-27T20:11:46;8.20;99.90
25170;DHT22;13129;48.012;10.352;2022-09-27T20:14:11;8.20;99.90
25170;DHT22;13129;48.012;10.352;2022-09-27T20:16:37;8.20;99.90
25170;DHT22;13129;48.012;10.352;2022-09-27T20:19:02;8.20;99.90
25170;DHT22;13129;48.012;10.352;2022-09-27T20:21:29;8.20;99.90
25170;DHT22;13129;48.012;10.352;2022-09-27T20:23:57;8.20;99.90
25170;DHT22;13129;48.012;10.352;2022-09-27T20:26:23;8.20;99.90
25170;DHT22;13129;48.012;10.352;2022-09-27T20:28:50;8.20;99.90
25170;DHT22;13129;48.012;10.352;2022-09-27T20:31:17;8.20;99.90
25170;DHT22;13129;48.012;10.352;2022-09-27T20:33:43;8.20;99.90
25170;DHT22;13129;48.012;10.352;2022-09-27T20:36:11;8.20;99.90
25170;DHT22;13129;48.012;10.352;2022-09-27T20:38:38;8.20;99.90
25170;DHT22;13129;48.012;10.352;2022-09-27T20:41:04;8.20;99.90
25170;DHT22;13129;48.012;10.352;2022-09-27T20:43:30;8.20;99.90
25170;DHT22;13129;48.012;10.352;2022-09-27T20:46:03;8.30;99.90
25170;DHT22;13129;48.012;10.352;2022-09-27T20:48:29;8.30;99.90
25170;DHT22;13129;48.012;10.352;2022-09-27T20:50:58;8.30;99.90
25170;DHT22;13129;48.012;10.352;2022-09-27T20:53:25;8.30;99.90
25170;DHT22;13129;48.012;10.352;2022-09-27T20:55:54;8.30;99.90
25170;DHT22;13129;48.012;10.352;2022-09-27T20:58:20;8.30;99.90
25170;DHT22;13129;48.012;10.352;2022-09-27T21:00:46;8.40;99.90
25170;DHT22;13129;48.012;10.352;2022-09-27T21:03:12;8.30;99.90
25170;DHT22;13129;48.012;10.352;2022-09-27T21:05:37;8.40;99.90
25170;DHT22;13129;48.012;10.352;2022-09-27T21:08:03;8.40;99.90
25170;DHT22;13129;48.012;10.352;2022-09-27T21:10:29;8.30;99.90
25170;DHT22;13129;48.012;10.352;2022-09-27T21:12:54;8.40;99.90
25170;DHT22;13129;48.012;10.352;2022-09-27T21:15:20;8.40;99.90